Monday, December 22, 2014
09:54 UTC
  |  Log In   |  Register Free
Airport Search:

La Guardia Airport
(KLGA)

FAA data valid effective November 13, 2014 - January 08, 2015 (unless otherwise noted).

 
 
 
 
 
 
 
 
 
 
 
 
 
 

Current Aviation Weather for La Guardia Airport (KLGA)

The most recent METAR observation for KLGA was updated at: 2116
METAR Summary (Translated METAR)
KLGA
182051Z 30018G24KT 10SM BKN039 05/M04 A2996 RMK AO2 SLP143 T00501039 53003
KJFK
182051Z 29013G21KT 10SM SCT041 SCT250 06/M04 A2996 RMK AO2 SLP145 T00561044 55000
(9.3 nm SE from KLGA)
KTEB
182051Z 30007G19KT 10SM OVC038 04/M04 A2996 RMK AO2 SLP145 T00441039 53005
(9.6 nm NW from KLGA)
TAF Summary (Translated TAF)
KLGA
220831Z 2209/2306 VRB03KT P6SM OVC010 FM221100 05006KT P6SM BKN015 OVC025 FM221600 06009KT 6SM -RA BKN010 OVC020 FM222000 07008KT 6SM -RA OVC008
KJFK
(9.3 nm SE from KLGA)
220831Z 2209/2312 02006KT P6SM OVC010 FM221200 04006KT P6SM BKN015 OVC025 FM221600 06007KT 6SM -RA BKN010 OVC020 FM222000 07007KT 6SM -RA BR OVC008 FM230600 07007KT 3SM -RA BR OVC004
  Airport Weather Conditions for KLGA

 Current Weather at LGA
36° F
Overcast
North winds at 4.6 mph
LGA NOAA Radar

Pressure: 30.32 in
Humidity: 82%
Wind: North at 4.6 MPH (4 KT)
Dew Point: 30.9°F
Visibility: 10.00 mi


Airport Weather Forecast for KLGA

Translated METAR and TAF for KLGA
Translated METAR for KLGA (0955 UTC 22 December 2014)
found at http://aviationweather.gov/adds/metars/
 
METAR text: KLGA 220951Z 01003KT 9SM OVC009 02/M01 A3032 RMK AO2 SLP268 T00221006
Conditions at: KLGA (NYC/LA GUARDIA , NY, US) observed 0951 UTC 22 December 2014
Temperature: 2.2°C (36°F)
Dewpoint: -0.6°C (31°F) [RH = 82%]
Pressure (altimeter): 30.32 inches Hg (1026.8 mb)
[Sea-level pressure: 1026.8 mb]
Winds: from the N (10 degrees) at 3 MPH (3 knots; 1.6 m/s)
Visibility: 9 miles (14 km)
Ceiling: 900 feet AGL
Clouds: overcast cloud deck at 900 feet AGL
Weather: no significant weather observed at this time
Translated TAF for KLGA
Forecast for: KLGA (NYC/LA GUARDIA , NY, US)
TAF Text: KLGA 220930Z 2210/2306 VRB03KT P6SM OVC010
Forecast period: 1000 to 1200 UTC 22 December 2014
Forecast type: FROM: standard forecast or significant change
Winds: variable direction winds at 3 MPH (3 knots; 1.6 m/s)
Visibility: 6 or more miles (10+ km)
Ceiling: 1000 feet AGL
Clouds: overcast cloud deck at 1000 feet AGL
Weather: no significant weather forecast for this period
TAF Text: TEMPO 2210/2212 BKN009
Forecast period: 1000 to 1200 UTC 22 December 2014
Forecast type: TEMPORARY: The following changes expected for less than half the time period
Ceiling: 900 feet AGL
Clouds: broken clouds at 900 feet AGL
Weather: no significant weather forecast for this period
TAF Text: FM221200 05006KT P6SM BKN010 OVC025
Forecast period: 1200 to 1600 UTC 22 December 2014
Forecast type: FROM: standard forecast or significant change
Winds: from the NE (50 degrees) at 7 MPH (6 knots; 3.1 m/s)
Visibility: 6 or more miles (10+ km)
Ceiling: 1000 feet AGL
Clouds: broken clouds at 1000 feet AGL
overcast cloud deck at 2500 feet AGL
Weather: no significant weather forecast for this period
TAF Text: FM221600 06009KT 6SM -RA BKN010 OVC020
Forecast period: 1600 to 2000 UTC 22 December 2014
Forecast type: FROM: standard forecast or significant change
Winds: from the ENE (60 degrees) at 10 MPH (9 knots; 4.7 m/s)
Visibility: 6 miles (10 km)
Ceiling: 1000 feet AGL
Clouds: broken clouds at 1000 feet AGL
overcast cloud deck at 2000 feet AGL
Weather: -RA  (light rain)
TAF Text: FM222000 07008KT 6SM -RA OVC008
Forecast period: 2000 UTC 22 December 2014 to 0600 UTC 23 December 2014
Forecast type: FROM: standard forecast or significant change
Winds: from the ENE (70 degrees) at 9 MPH (8 knots; 4.2 m/s)
Visibility: 6 miles (10 km)
Ceiling: 800 feet AGL
Clouds: overcast cloud deck at 800 feet AGL
Weather: -RA  (light rain)

Find All Airport Services Find A Hotel Find A Rental Car Find A Golf Course Find A Restaurant $100 Hamburger



FBO's on the Field
FBO Company Facility Photos Services Transportation Aviation Fuel Prices: Prices include tax
Catering Weather Repair Courtesy Rental Type 100LL JetA JetA+ MOGAS 8087
 
Sheltair

This FBO has not yet been rated
FS:Avfuel
Last Updated: Nov-18
Login to update fuel prices
SS:
Contact SheltairMore FBO Information
 
Add another FBO Facility Photos Catering Weather Repair Courtesy Rental Type 100LL JetA JetA+ MOGAS 8087
Services Transportation Aviation Fuel Prices: Prices include tax


model-print
model-print
model-print
model-print